Time;durP1;ratioP1;P1;durP2;ratioP2;P2;SDS_P1;SDS_P2;PMS_P1;PMS_P2;Temp;Humidity;BMP_temperature;BMP_pressure;BME280_temperature;BME280_humidity;BME280_pressure;Samples;Min_cycle;Max_cycle;Signal;HPM_P1;HPM_P2
2023/04/04 00:00:35;;;;;;;6.40;5.80;;;5.50;90.60;;;;;;4923386;29;20412;-91
2023/04/04 00:03:01;;;;;;;8.70;6.10;;;5.50;90.80;;;;;;4918867;29;20340;-83
2023/04/04 00:05:27;;;;;;;6.13;5.63;;;5.50;90.70;;;;;;4901114;29;20203;-92
2023/04/04 00:07:53;;;;;;;6.03;5.63;;;5.40;90.80;;;;;;4903075;29;20402;-92
2023/04/04 00:10:19;;;;;;;6.60;6.00;;;5.50;90.70;;;;;;4899600;29;20270;-94
2023/04/04 00:12:45;;;;;;;6.77;6.07;;;5.50;90.90;;;;;;4899710;29;20205;-96
2023/04/04 00:15:11;;;;;;;8.20;6.30;;;5.40;90.90;;;;;;4898854;29;20241;-95
2023/04/04 00:17:37;;;;;;;6.53;6.03;;;5.40;90.80;;;;;;4899625;29;20211;-94
2023/04/04 00:20:03;;;;;;;6.50;6.00;;;5.40;91.10;;;;;;4899282;29;20430;-87
2023/04/04 00:22:29;;;;;;;8.68;6.00;;;5.40;91.00;;;;;;4899670;29;20186;-95
2023/04/04 00:24:55;;;;;;;6.20;5.60;;;5.50;90.70;;;;;;4899645;29;20179;-96
2023/04/04 00:27:20;;;;;;;6.50;5.90;;;5.40;90.50;;;;;;4900571;29;20285;-96
2023/04/04 00:29:46;;;;;;;7.00;6.40;;;5.40;90.50;;;;;;4900992;29;20187;-94
2023/04/04 00:32:12;;;;;;;6.37;5.83;;;5.40;90.70;;;;;;4897130;29;20215;-95
2023/04/04 00:34:37;;;;;;;6.40;5.80;;;5.40;90.60;;;;;;4900138;29;20183;-96
2023/04/04 00:37:06;;;;;;;6.67;5.93;;;5.40;90.70;;;;;;4900305;29;20179;-86
2023/04/04 00:39:32;;;;;;;6.47;5.97;;;5.50;90.80;;;;;;4899969;29;20202;-95
2023/04/04 00:42:01;;;;;;;5.60;5.15;;;5.40;90.60;;;;;;4915976;29;20206;-95
2023/04/04 00:44:27;;;;;;;5.57;5.07;;;5.40;90.30;;;;;;4909765;29;20183;-96
2023/04/04 00:46:53;;;;;;;5.80;5.40;;;5.40;90.50;;;;;;4913161;29;20253;-96
2023/04/04 00:49:21;;;;;;;6.53;5.97;;;5.40;90.60;;;;;;4909445;29;20242;-93
2023/04/04 00:51:47;;;;;;;5.85;5.32;;;5.40;90.80;;;;;;4921690;29;20243;-94
2023/04/04 00:54:12;;;;;;;5.93;5.43;;;5.40;90.90;;;;;;4920919;29;20190;-93
2023/04/04 00:56:41;;;;;;;5.57;5.13;;;5.40;91.00;;;;;;5071051;23;20239;-93
2023/04/04 01:01:50;;;;;;;6.45;5.55;;;5.20;91.40;;;;;;5481688;23;20254;-96
2023/04/04 01:04:19;;;;;;;6.00;5.40;;;5.30;91.90;;;;;;5644308;23;20217;31
2023/04/04 01:06:45;;;;;;;6.30;5.75;;;5.10;91.40;;;;;;5435320;23;21413;-95
2023/04/04 01:09:11;;;;;;;5.63;5.10;;;5.20;91.70;;;;;;4913164;29;20179;-95
2023/04/04 01:11:37;;;;;;;6.47;5.97;;;5.20;91.60;;;;;;4898868;29;20207;-94
2023/04/04 01:14:03;;;;;;;10.00;5.97;;;5.20;91.70;;;;;;4898439;29;20242;-88
2023/04/04 01:16:29;;;;;;;8.13;6.10;;;5.20;91.70;;;;;;4897901;29;20934;-93
2023/04/04 01:18:55;;;;;;;6.70;5.70;;;5.30;91.50;;;;;;4899773;29;20482;-96
2023/04/04 01:21:22;;;;;;;7.40;6.25;;;5.30;91.40;;;;;;4899194;29;20439;-96
2023/04/04 01:24:02;;;;;;;6.30;5.20;;;5.30;91.30;;;;;;4883939;29;20219;-94
2023/04/04 01:26:29;;;;;;;5.88;5.35;;;5.30;91.10;;;;;;4900578;29;20175;-96
2023/04/04 01:28:58;;;;;;;6.45;5.95;;;5.20;91.10;;;;;;4905057;29;20193;-96
2023/04/04 01:31:41;;;;;;;7.47;6.43;;;5.20;91.20;;;;;;4912313;29;20203;-96
2023/04/04 01:34:27;;;;;;;8.93;5.80;;;5.30;91.40;;;;;;4914856;29;20211;-85
2023/04/04 01:37:32;;;;;;;5.97;5.47;;;5.10;91.40;;;;;;4913906;29;20187;-95
2023/04/04 01:40:07;;;;;;;6.40;5.80;;;5.10;91.60;;;;;;4919014;29;20207;-96
2023/04/04 01:42:34;;;;;;;6.90;5.80;;;5.10;91.80;;;;;;5267569;23;20235;-95
2023/04/04 01:45:01;;;;;;;5.70;5.30;;;5.10;92.00;;;;;;4881629;29;20240;-95
2023/04/04 01:47:28;;;;;;;6.40;5.60;;;5.10;92.40;;;;;;4881670;29;20407;-90
2023/04/04 01:49:54;;;;;;;6.85;6.25;;;5.10;92.30;;;;;;4867620;29;20185;-96
2023/04/04 01:52:20;;;;;;;6.35;5.85;;;5.10;92.30;;;;;;4860006;29;20304;-96
2023/04/04 01:54:46;;;;;;;7.07;6.47;;;5.00;92.40;;;;;;4861144;29;20212;-96
2023/04/04 01:57:12;;;;;;;7.03;6.33;;;5.00;92.60;;;;;;4860517;29;20196;-93
2023/04/04 01:59:38;;;;;;;6.10;5.60;;;5.00;92.40;;;;;;4861324;29;20176;-96
2023/04/04 02:02:03;;;;;;;6.73;6.13;;;5.00;92.50;;;;;;4861014;29;20885;-96
2023/04/04 02:04:29;;;;;;;6.17;5.63;;;5.00;92.60;;;;;;4844367;29;20244;-96
2023/04/04 02:06:55;;;;;;;8.40;6.30;;;4.90;92.80;;;;;;4860757;29;20417;-95
2023/04/04 02:09:21;;;;;;;6.68;6.18;;;4.90;92.80;;;;;;4860236;29;20177;-95
2023/04/04 02:11:47;;;;;;;6.63;5.80;;;4.70;92.90;;;;;;4861194;29;20192;-94
2023/04/04 02:14:13;;;;;;;6.73;6.13;;;4.60;93.00;;;;;;4859960;29;20224;-92
2023/04/04 02:16:38;;;;;;;8.37;6.87;;;4.40;93.60;;;;;;4859808;29;20173;-94
2023/04/04 02:19:04;;;;;;;8.43;6.67;;;4.30;94.50;;;;;;4860024;29;20193;-95
2023/04/04 02:21:30;;;;;;;7.53;5.87;;;4.40;94.80;;;;;;4860290;29;20268;-96
2023/04/04 02:23:56;;;;;;;11.70;6.20;;;4.40;94.90;;;;;;4859430;29;20193;-95
2023/04/04 02:26:21;;;;;;;7.33;6.63;;;4.50;94.80;;;;;;4860459;29;20184;-95
2023/04/04 02:28:47;;;;;;;6.60;6.10;;;4.60;94.90;;;;;;4861052;29;20685;-94
2023/04/04 02:31:13;;;;;;;6.43;5.93;;;4.50;94.80;;;;;;4859210;29;20185;-94
2023/04/04 02:33:38;;;;;;;7.10;5.80;;;4.50;94.70;;;;;;4860732;29;20196;-94
2023/04/04 02:36:04;;;;;;;6.40;5.90;;;4.60;94.80;;;;;;4859239;29;20634;-94
2023/04/04 02:38:30;;;;;;;12.18;6.47;;;4.60;95.00;;;;;;4859682;29;20181;-94
2023/04/04 02:40:59;;;;;;;6.85;6.20;;;4.60;94.80;;;;;;4859209;29;20192;-94
2023/04/04 02:43:25;;;;;;;7.53;6.10;;;4.60;94.60;;;;;;4858912;29;20228;-93
2023/04/04 02:45:51;;;;;;;7.17;6.57;;;4.60;94.60;;;;;;4862080;29;20427;-94
2023/04/04 02:48:17;;;;;;;6.80;6.22;;;4.60;94.60;;;;;;4863053;29;20181;-95
2023/04/04 02:50:42;;;;;;;7.27;6.67;;;4.50;94.60;;;;;;4863664;29;20321;-94
2023/04/04 02:53:08;;;;;;;7.97;7.27;;;4.50;94.30;;;;;;4861806;29;20208;-93
2023/04/04 02:55:34;;;;;;;6.63;6.03;;;4.50;94.60;;;;;;4862464;29;20196;-94
2023/04/04 02:58:00;;;;;;;6.70;6.07;;;4.50;94.80;;;;;;4846673;29;20277;-94
2023/04/04 03:00:26;;;;;;;7.93;6.60;;;4.50;95.10;;;;;;4861505;29;20384;-94
2023/04/04 03:02:54;;;;;;;7.60;6.80;;;4.50;94.80;;;;;;4861065;29;20195;-93
2023/04/04 03:05:20;;;;;;;7.95;6.88;;;4.40;94.80;;;;;;4862509;29;20260;-93
2023/04/04 03:07:45;;;;;;;7.10;6.50;;;4.40;95.00;;;;;;4863260;29;20228;-94
2023/04/04 03:10:11;;;;;;;7.40;6.70;;;4.50;95.20;;;;;;4863266;29;20176;-85
2023/04/04 03:12:37;;;;;;;8.53;6.30;;;4.40;95.30;;;;;;4845966;29;20635;-94
2023/04/04 03:15:04;;;;;;;7.27;6.63;;;4.50;95.60;;;;;;4863097;29;20491;-94
2023/04/04 03:17:30;;;;;;;8.05;7.28;;;4.40;95.60;;;;;;4861887;29;20248;-96
2023/04/04 03:19:56;;;;;;;6.60;6.10;;;4.40;95.50;;;;;;4863583;29;20622;-95
2023/04/04 03:22:21;;;;;;;6.07;5.60;;;4.30;95.40;;;;;;4862874;29;20246;-94
2023/04/04 03:24:47;;;;;;;7.27;6.57;;;4.30;95.30;;;;;;4862190;29;20181;-94
2023/04/04 03:27:13;;;;;;;7.03;6.40;;;4.30;95.50;;;;;;4863505;29;20298;-87
2023/04/04 03:29:38;;;;;;;6.30;5.80;;;4.30;95.50;;;;;;4863476;29;20180;-96
2023/04/04 03:32:04;;;;;;;7.33;6.47;;;4.30;95.70;;;;;;4869719;29;20196;-96
2023/04/04 03:34:30;;;;;;;7.13;6.43;;;4.20;95.80;;;;;;4871054;29;20208;-96
2023/04/04 03:36:56;;;;;;;8.07;7.43;;;4.20;95.90;;;;;;4864349;29;20187;-96
2023/04/04 03:39:27;;;;;;;8.10;7.50;;;4.20;96.20;;;;;;4861953;29;20421;-95
2023/04/04 03:41:52;;;;;;;7.10;6.45;;;4.20;96.20;;;;;;4862487;29;20333;-95
2023/04/04 03:44:18;;;;;;;7.63;6.60;;;4.10;96.30;;;;;;4862321;29;20220;-95
2023/04/04 03:46:44;;;;;;;7.80;6.50;;;4.10;96.40;;;;;;4870576;29;20187;-96
2023/04/04 03:49:10;;;;;;;9.30;8.50;;;4.10;96.20;;;;;;4867560;29;20188;-96
2023/04/04 03:51:36;;;;;;;10.40;6.27;;;4.10;96.10;;;;;;4877121;29;20489;-95
2023/04/04 03:54:01;;;;;;;8.70;7.90;;;4.10;96.00;;;;;;4879809;29;20526;-94
2023/04/04 03:56:28;;;;;;;6.53;6.03;;;4.10;96.20;;;;;;4869240;29;20191;-95
2023/04/04 03:58:55;;;;;;;7.47;6.70;;;4.10;96.30;;;;;;4863719;29;20433;-96
2023/04/04 04:01:22;;;;;;;6.78;6.18;;;4.10;96.30;;;;;;4873260;29;20530;-96
2023/04/04 04:03:47;;;;;;;6.85;6.20;;;4.00;96.30;;;;;;4883612;29;20195;-95
2023/04/04 04:06:13;;;;;;;7.77;7.00;;;4.00;96.40;;;;;;4872685;29;20559;-96
2023/04/04 04:08:39;;;;;;;7.60;7.00;;;4.00;96.40;;;;;;4864256;29;20265;-96
2023/04/04 04:11:05;;;;;;;8.20;7.50;;;4.00;96.50;;;;;;4870136;29;20196;-93
2023/04/04 04:13:32;;;;;;;7.55;6.85;;;4.00;96.90;;;;;;4865723;29;20212;-95
2023/04/04 04:15:58;;;;;;;8.30;7.55;;;3.90;96.60;;;;;;4864879;29;20216;-95
2023/04/04 04:18:23;;;;;;;8.90;6.47;;;4.00;96.70;;;;;;4863196;29;20672;-94
2023/04/04 04:20:49;;;;;;;7.00;6.30;;;3.90;96.90;;;;;;4869785;29;20222;-96
2023/04/04 04:23:15;;;;;;;7.30;6.60;;;3.90;96.90;;;;;;4873407;29;20670;-87
2023/04/04 04:25:41;;;;;;;8.50;6.93;;;3.90;97.20;;;;;;4880619;29;20613;-94
2023/04/04 04:28:06;;;;;;;8.00;7.30;;;3.90;97.50;;;;;;4895176;29;20404;-96
2023/04/04 04:30:32;;;;;;;7.53;6.83;;;3.90;97.50;;;;;;4883094;29;20204;-95
2023/04/04 04:32:58;;;;;;;8.13;6.30;;;3.90;97.30;;;;;;4897276;29;20203;-95
2023/04/04 04:35:24;;;;;;;7.70;6.60;;;3.90;97.10;;;;;;4880431;29;20225;-95
2023/04/04 04:37:49;;;;;;;7.73;6.97;;;3.80;96.90;;;;;;4885903;29;20534;-96
2023/04/04 04:40:15;;;;;;;7.97;6.40;;;3.90;97.10;;;;;;4890872;29;20240;-89
2023/04/04 04:42:45;;;;;;;8.80;7.60;;;3.80;97.00;;;;;;4884586;29;20244;-96
2023/04/04 04:45:11;;;;;;;11.02;7.78;;;3.80;97.40;;;;;;4884768;29;20183;-96
2023/04/04 04:47:37;;;;;;;8.32;7.28;;;3.80;97.60;;;;;;4879405;29;20185;-96
2023/04/04 04:50:03;;;;;;;7.70;7.10;;;3.80;97.90;;;;;;4880227;29;20181;-96
2023/04/04 04:52:30;;;;;;;8.25;7.40;;;3.80;97.80;;;;;;4878776;29;20226;-96
2023/04/04 04:54:56;;;;;;;7.57;6.97;;;3.80;97.70;;;;;;4869297;29;20184;-96
2023/04/04 04:57:22;;;;;;;7.30;6.60;;;3.80;97.70;;;;;;4865493;29;20233;-96
2023/04/04 04:59:48;;;;;;;8.03;7.30;;;3.80;98.00;;;;;;4867589;29;20400;-96
2023/04/04 05:02:15;;;;;;;8.03;7.23;;;3.80;98.30;;;;;;4867998;29;20211;-96
2023/04/04 05:04:43;;;;;;;8.52;7.65;;;3.80;98.30;;;;;;4870670;29;20429;-96
2023/04/04 05:07:11;;;;;;;7.97;7.35;;;3.70;98.20;;;;;;4867055;29;20187;-96
2023/04/04 05:09:37;;;;;;;10.70;7.40;;;3.80;98.40;;;;;;4862415;29;20271;-95
2023/04/04 05:12:03;;;;;;;11.38;7.68;;;3.80;98.20;;;;;;4860684;29;20616;-95
2023/04/04 05:14:29;;;;;;;6.50;6.00;;;3.80;98.30;;;;;;4843494;29;20253;-95
2023/04/04 05:16:55;;;;;;;6.77;6.27;;;3.80;98.40;;;;;;4859565;29;20200;-95
2023/04/04 05:19:21;;;;;;;7.10;6.50;;;3.80;98.50;;;;;;4858473;29;20203;-87
2023/04/04 05:21:47;;;;;;;10.35;6.90;;;3.80;98.60;;;;;;4859031;29;20195;-96
2023/04/04 05:24:13;;;;;;;7.83;7.13;;;3.80;98.60;;;;;;4898548;24;20242;-96
2023/04/04 05:26:38;;;;;;;10.27;9.30;;;3.80;99.30;;;;;;4899005;29;20246;-94
2023/04/04 05:29:04;;;;;;;11.83;9.77;;;3.90;99.20;;;;;;4896199;29;20179;-91
2023/04/04 05:31:30;;;;;;;10.40;7.77;;;3.90;98.80;;;;;;4894717;29;20197;-89
2023/04/04 05:33:56;;;;;;;7.80;7.00;;;4.10;99.90;;;;;;4898585;29;20254;-84
2023/04/04 05:36:22;;;;;;;12.20;11.10;;;4.90;99.90;;;;;;4894436;29;20242;-84
2023/04/04 05:38:47;;;;;;;9.93;8.93;;;5.70;99.90;;;;;;4893944;29;20230;-83
2023/04/04 05:41:13;;;;;;;8.27;7.57;;;6.50;99.90;;;;;;4896557;29;20199;-82
2023/04/04 05:43:39;;;;;;;6.47;5.97;;;7.30;99.90;;;;;;4895436;29;20188;-83
2023/04/04 05:46:04;;;;;;;9.70;9.00;;;8.00;98.00;;;;;;4896593;29;20185;-83
2023/04/04 05:48:30;;;;;;;8.23;7.60;;;9.40;95.00;;;;;;4895752;29;20251;-83
2023/04/04 05:50:56;;;;;;;8.40;7.60;;;9.30;94.30;;;;;;4894709;29;20238;-86
2023/04/04 05:53:21;;;;;;;8.17;7.47;;;9.70;92.00;;;;;;4895006;29;20226;-85
2023/04/04 05:55:52;;;;;;;8.97;8.23;;;10.20;90.20;;;;;;4897138;29;20175;-85
2023/04/04 05:58:18;;;;;;;8.20;6.30;;;10.50;86.70;;;;;;4896518;29;20183;-85
2023/04/04 06:00:43;;;;;;;6.37;5.77;;;10.80;83.30;;;;;;4889700;29;21229;-84
2023/04/04 06:03:09;;;;;;;7.50;6.80;;;11.10;80.70;;;;;;4895072;29;20663;-83
2023/04/04 06:05:35;;;;;;;9.23;8.60;;;11.30;78.70;;;;;;4894390;29;20187;-83
2023/04/04 06:08:00;;;;;;;7.70;7.10;;;11.50;76.60;;;;;;4896529;29;20219;-84
2023/04/04 06:10:26;;;;;;;6.30;5.70;;;11.70;76.00;;;;;;4895499;29;20182;-83
2023/04/04 06:12:52;;;;;;;6.13;5.53;;;11.90;74.00;;;;;;4895782;29;20281;-83
2023/04/04 06:15:17;;;;;;;7.17;6.23;;;12.00;77.10;;;;;;4896445;29;20189;-84
2023/04/04 06:17:44;;;;;;;7.93;6.70;;;12.10;74.20;;;;;;4896829;29;20183;-83
2023/04/04 06:20:10;;;;;;;7.20;6.53;;;12.10;68.90;;;;;;4898923;29;20273;-84
2023/04/04 06:22:36;;;;;;;6.97;6.27;;;12.20;68.40;;;;;;4898387;29;20528;-83
2023/04/04 06:25:01;;;;;;;9.40;8.60;;;12.30;69.20;;;;;;4900016;29;20482;-83
2023/04/04 06:27:29;;;;;;;8.43;7.57;;;12.40;67.20;;;;;;4899411;29;20436;-83
2023/04/04 06:29:55;;;;;;;15.30;6.43;;;12.50;66.70;;;;;;4899029;29;20189;-83
2023/04/04 06:32:21;;;;;;;9.60;7.93;;;12.60;67.30;;;;;;4900691;29;20953;-84
2023/04/04 06:34:46;;;;;;;11.03;8.77;;;12.70;66.50;;;;;;4899243;29;20190;-83
2023/04/04 06:37:12;;;;;;;9.03;8.17;;;12.80;64.60;;;;;;4899022;29;20251;-84
2023/04/04 06:39:38;;;;;;;8.10;7.30;;;12.80;63.10;;;;;;4899560;29;20289;-83
2023/04/04 06:42:04;;;;;;;7.90;6.83;;;12.80;63.50;;;;;;4900572;29;20235;-83
2023/04/04 06:44:30;;;;;;;10.53;8.37;;;12.90;63.60;;;;;;4897553;29;20209;-83
2023/04/04 06:46:56;;;;;;;9.93;9.03;;;13.00;65.10;;;;;;4900509;29;20435;-91
2023/04/04 06:49:22;;;;;;;8.70;7.90;;;13.00;62.10;;;;;;4901370;29;20431;-94
2023/04/04 06:51:51;;;;;;;10.70;9.30;;;12.50;59.40;;;;;;4899401;29;20435;-90
2023/04/04 06:54:17;;;;;;;9.37;8.47;;;11.90;58.90;;;;;;4897838;29;20217;-90
2023/04/04 06:56:43;;;;;;;9.70;8.70;;;11.30;59.30;;;;;;4898488;29;20474;-91
2023/04/04 06:59:11;;;;;;;9.20;8.03;;;10.70;60.10;;;;;;4900747;29;20533;-90
2023/04/04 07:01:36;;;;;;;10.30;9.07;;;10.30;61.90;;;;;;4898270;29;20183;-92
2023/04/04 07:04:02;;;;;;;9.27;8.30;;;9.80;65.10;;;;;;4899522;29;20474;-92
2023/04/04 07:06:30;;;;;;;14.53;10.20;;;9.40;67.30;;;;;;4901238;29;20171;-91
2023/04/04 07:08:56;;;;;;;10.63;9.73;;;9.00;69.30;;;;;;4897884;29;20446;-91
2023/04/04 07:11:25;;;;;;;15.17;9.43;;;8.70;71.70;;;;;;4900103;29;20856;-86
2023/04/04 07:13:51;;;;;;;11.30;9.10;;;8.30;73.10;;;;;;4898021;29;20219;-93
2023/04/04 07:16:17;;;;;;;15.20;11.00;;;8.10;75.30;;;;;;4901087;29;20550;-94
2023/04/04 07:18:43;;;;;;;12.43;10.03;;;7.90;78.10;;;;;;4899422;29;20186;-93
2023/04/04 07:21:09;;;;;;;15.90;9.67;;;7.70;81.80;;;;;;4902355;29;20493;-94
2023/04/04 07:23:35;;;;;;;11.80;9.37;;;7.60;84.80;;;;;;4900816;29;20230;-94
2023/04/04 07:26:01;;;;;;;11.87;10.33;;;7.50;85.50;;;;;;4902346;29;20453;-93
2023/04/04 07:28:27;;;;;;;17.47;11.80;;;7.40;85.70;;;;;;4902839;29;20200;-89
2023/04/04 07:30:53;;;;;;;14.00;12.60;;;7.30;86.60;;;;;;4900398;29;20795;-93
2023/04/04 07:33:18;;;;;;;13.30;10.10;;;7.20;88.00;;;;;;4899600;29;20217;-94
2023/04/04 07:35:44;;;;;;;12.60;10.33;;;7.20;88.60;;;;;;4899155;29;20188;-94
2023/04/04 07:38:10;;;;;;;16.93;12.33;;;7.10;89.50;;;;;;4901122;29;20189;-93
2023/04/04 07:40:35;;;;;;;11.83;8.87;;;7.00;88.90;;;;;;4900777;29;20204;-93
2023/04/04 07:43:01;;;;;;;9.33;7.33;;;7.00;89.50;;;;;;4900539;29;20192;-91
2023/04/04 07:45:27;;;;;;;11.60;9.43;;;7.00;89.00;;;;;;4899323;29;20604;-92
2023/04/04 07:47:52;;;;;;;10.03;7.00;;;7.10;87.90;;;;;;4899587;29;20193;-89
2023/04/04 07:50:18;;;;;;;8.53;7.70;;;7.00;87.90;;;;;;4900294;29;20558;-94
2023/04/04 07:52:51;;;;;;;8.00;7.33;;;7.00;88.20;;;;;;4901503;29;20219;-94
2023/04/04 07:55:18;;;;;;;8.87;8.07;;;7.10;88.20;;;;;;4898965;29;20542;-85
2023/04/04 07:57:44;;;;;;;7.90;6.17;;;7.10;87.90;;;;;;4898901;29;20422;-89
2023/04/04 08:00:10;;;;;;;10.63;5.93;;;7.20;86.50;;;;;;4896999;29;20444;-87
2023/04/04 08:02:37;;;;;;;8.13;7.43;;;7.10;82.20;;;;;;4895152;29;20188;-85
2023/04/04 08:05:03;;;;;;;7.63;4.30;;;7.10;81.80;;;;;;4898963;29;20419;-85
2023/04/04 08:07:29;;;;;;;7.03;5.60;;;7.20;81.70;;;;;;4898194;29;20464;-86
2023/04/04 08:09:55;;;;;;;5.90;5.40;;;7.30;79.10;;;;;;4899402;29;20982;-91
2023/04/04 08:12:20;;;;;;;4.57;3.93;;;7.40;80.60;;;;;;4898411;29;20316;-92
2023/04/04 08:14:46;;;;;;;5.83;4.20;;;7.50;78.00;;;;;;4899260;29;20486;-92
2023/04/04 08:17:13;;;;;;;4.53;4.00;;;7.50;78.20;;;;;;4899617;29;20651;-92
2023/04/04 08:19:39;;;;;;;4.17;3.43;;;7.60;76.40;;;;;;4897880;29;20182;-92
2023/04/04 08:22:05;;;;;;;3.67;3.37;;;7.70;75.30;;;;;;4899293;29;20417;-92
2023/04/04 08:24:31;;;;;;;3.60;3.30;;;7.90;74.50;;;;;;4897657;29;20234;-85
2023/04/04 08:26:57;;;;;;;4.17;3.80;;;8.00;75.10;;;;;;4897994;29;20190;-94
2023/04/04 08:29:22;;;;;;;4.70;4.30;;;8.10;75.10;;;;;;4898230;29;20447;-92
2023/04/04 08:31:48;;;;;;;4.10;3.80;;;8.30;73.10;;;;;;4898286;29;20743;-93
2023/04/04 08:34:14;;;;;;;3.93;3.63;;;8.30;72.80;;;;;;4897816;29;20294;-93
2023/04/04 08:36:40;;;;;;;4.33;4.03;;;8.40;69.70;;;;;;4897189;29;20533;-93
2023/04/04 08:39:06;;;;;;;4.00;3.70;;;8.50;70.00;;;;;;4899067;29;20179;-93
2023/04/04 08:41:34;;;;;;;4.20;3.90;;;8.50;68.20;;;;;;4898298;29;20451;-86
2023/04/04 08:44:03;;;;;;;5.20;4.70;;;8.40;69.00;;;;;;4898345;29;20435;-93
2023/04/04 08:46:29;;;;;;;4.40;3.83;;;8.50;70.10;;;;;;4898003;29;20442;-92
2023/04/04 08:48:55;;;;;;;3.80;3.50;;;8.50;68.70;;;;;;4897910;29;20416;-92
2023/04/04 08:51:25;;;;;;;3.30;3.03;;;8.50;67.40;;;;;;4898414;29;20932;-92
2023/04/04 08:53:51;;;;;;;3.93;3.63;;;8.60;66.80;;;;;;4897281;29;20818;-92
2023/04/04 08:56:17;;;;;;;4.10;3.80;;;8.70;67.30;;;;;;4898495;29;20442;-92
2023/04/04 08:58:43;;;;;;;5.30;4.80;;;8.80;67.20;;;;;;4897262;29;20447;-92
2023/04/04 09:01:09;;;;;;;4.00;3.80;;;8.90;70.90;;;;;;4896154;29;20183;-92
2023/04/04 09:03:36;;;;;;;5.83;4.10;;;8.90;68.20;;;;;;4896852;29;20183;-86
2023/04/04 09:06:03;;;;;;;4.67;4.30;;;8.90;66.90;;;;;;4898424;29;20419;-92
2023/04/04 09:08:30;;;;;;;4.13;3.83;;;8.90;64.70;;;;;;4897770;29;20431;-92
2023/04/04 09:10:56;;;;;;;3.97;3.40;;;8.60;62.10;;;;;;4896977;29;20447;-92
2023/04/04 09:13:22;;;;;;;5.80;3.73;;;8.60;68.30;;;;;;4897480;29;20490;-89
2023/04/04 09:15:54;;;;;;;4.70;4.30;;;8.80;69.10;;;;;;4896492;29;20423;-88
2023/04/04 09:18:20;;;;;;;4.77;4.40;;;8.90;71.80;;;;;;4897945;29;20431;-92
2023/04/04 09:20:49;;;;;;;4.70;4.40;;;9.00;68.50;;;;;;4904393;29;20522;-91
2023/04/04 09:23:22;;;;;;;3.83;3.57;;;9.00;68.40;;;;;;4921584;29;20955;-89
2023/04/04 09:25:54;;;;;;;4.30;4.00;;;9.20;69.20;;;;;;4920026;29;20463;-87
2023/04/04 09:28:21;;;;;;;4.60;3.93;;;9.40;64.60;;;;;;4911602;29;20963;-92
2023/04/04 09:30:49;;;;;;;4.27;3.90;;;9.60;64.70;;;;;;4890567;29;20433;-87
2023/04/04 09:33:16;;;;;;;5.53;5.03;;;9.80;67.10;;;;;;4907074;29;20566;-92
2023/04/04 09:35:54;;;;;;;3.43;3.23;;;10.00;64.40;;;;;;4900630;29;20445;-92
2023/04/04 09:38:24;;;;;;;7.43;4.60;;;10.00;65.00;;;;;;4897479;29;20896;-92
2023/04/04 09:40:51;;;;;;;3.20;3.00;;;10.10;64.90;;;;;;4897237;29;20778;-92
2023/04/04 09:43:18;;;;;;;5.00;4.70;;;10.40;62.60;;;;;;4897066;29;20446;-92
2023/04/04 09:45:45;;;;;;;5.20;4.73;;;10.60;58.10;;;;;;4896216;29;20522;-92
2023/04/04 09:48:10;;;;;;;5.87;5.47;;;10.70;59.80;;;;;;4897908;29;20430;-93
2023/04/04 09:50:44;;;;;;;4.20;3.90;;;11.00;59.20;;;;;;4896454;29;20952;-87
2023/04/04 09:53:16;;;;;;;3.53;3.23;;;11.20;57.50;;;;;;4896866;29;20524;-91
2023/04/04 09:55:49;;;;;;;4.20;3.90;;;11.40;56.00;;;;;;4898033;29;20416;-92
2023/04/04 09:58:17;;;;;;;4.37;4.07;;;11.70;57.00;;;;;;4899896;29;20438;-93
2023/04/04 10:00:47;;;;;;;4.63;4.20;;;12.00;56.40;;;;;;4897254;29;20452;-93
2023/04/04 10:03:20;;;;;;;4.50;4.10;;;12.20;55.20;;;;;;4897842;29;20451;-94
2023/04/04 10:05:47;;;;;;;3.83;3.53;;;12.10;54.30;;;;;;4895691;29;20445;-92
2023/04/04 10:09:02;;;;;;;4.00;3.00;;;11.60;52.50;;;;;;4897250;29;20443;-93
2023/04/04 10:11:38;;;;;;;3.80;3.50;;;10.90;53.80;;;;;;4863153;29;20972;-93
2023/04/04 10:14:04;;;;;;;3.43;3.23;;;10.80;54.40;;;;;;4883506;29;20545;-93
2023/04/04 10:16:36;;;;;;;4.50;4.17;;;11.00;58.10;;;;;;4897790;29;20515;-92
2023/04/04 10:19:08;;;;;;;4.30;3.90;;;11.40;57.20;;;;;;4895795;29;20199;-92
2023/04/04 10:21:34;;;;;;;6.03;5.60;;;11.80;56.50;;;;;;4896618;29;20522;-94
2023/04/04 10:24:07;;;;;;;6.50;6.00;;;12.20;56.50;;;;;;4895599;29;20475;-93
2023/04/04 10:26:35;;;;;;;4.03;3.73;;;12.80;56.10;;;;;;4897440;29;20418;-93
2023/04/04 10:29:03;;;;;;;4.30;2.97;;;13.10;57.80;;;;;;4896311;29;20515;-93
2023/04/04 10:31:33;;;;;;;4.87;4.57;;;13.20;55.10;;;;;;4896434;29;20797;-93
2023/04/04 10:34:20;;;;;;;4.53;4.23;;;13.40;53.90;;;;;;4896750;29;20465;-93
2023/04/04 10:37:07;;;;;;;3.87;3.33;;;13.50;54.60;;;;;;4892851;29;21002;-93
2023/04/04 10:39:56;;;;;;;4.83;4.33;;;13.70;53.70;;;;;;4888027;29;20924;-93
2023/04/04 10:42:25;;;;;;;3.80;3.50;;;13.80;53.00;;;;;;4895989;29;20833;-93
2023/04/04 10:44:50;;;;;;;2.80;2.50;;;13.90;51.40;;;;;;4895526;29;20484;-93
2023/04/04 10:47:18;;;;;;;3.60;3.40;;;13.50;48.80;;;;;;4895771;29;20449;-93
2023/04/04 10:49:45;;;;;;;3.97;3.57;;;13.40;51.40;;;;;;4894580;29;20209;-93
2023/04/04 10:52:19;;;;;;;5.50;5.20;;;13.60;51.40;;;;;;4897148;29;20422;-94
2023/04/04 10:54:48;;;;;;;6.10;3.90;;;13.60;50.90;;;;;;4896728;29;20481;-92
2023/04/04 10:57:15;;;;;;;4.70;4.30;;;13.80;52.30;;;;;;4895313;29;20464;-93
2023/04/04 10:59:57;;;;;;;4.57;4.17;;;14.00;50.80;;;;;;4896067;29;20533;-87
2023/04/04 11:02:59;;;;;;;4.27;4.07;;;13.90;48.40;;;;;;4896255;29;20513;-94
2023/04/04 11:05:45;;;;;;;4.13;3.90;;;13.90;48.70;;;;;;4841461;29;20523;-93
2023/04/04 11:08:19;;;;;;;3.53;3.33;;;13.90;50.00;;;;;;4896576;29;20490;-93
2023/04/04 11:10:50;;;;;;;5.33;3.43;;;13.80;51.40;;;;;;4898958;29;20779;-93
2023/04/04 11:13:21;;;;;;;4.07;3.83;;;14.00;51.70;;;;;;4898519;29;20564;-94
2023/04/04 11:16:14;;;;;;;3.60;3.40;;;14.30;50.40;;;;;;4899801;29;20400;-93
2023/04/04 11:18:44;;;;;;;3.50;3.30;;;14.40;50.50;;;;;;4895375;29;20450;-87
2023/04/04 11:21:28;;;;;;;3.90;3.60;;;14.30;49.60;;;;;;4898104;29;20447;-93
2023/04/04 11:23:57;;;;;;;3.90;3.70;;;14.30;48.20;;;;;;4898568;29;20986;-94
2023/04/04 11:26:28;;;;;;;4.00;3.70;;;14.30;47.50;;;;;;4899151;29;20479;-94
2023/04/04 11:29:06;;;;;;;4.20;3.80;;;14.20;49.60;;;;;;4898899;29;20446;-93
2023/04/04 11:31:53;;;;;;;4.27;3.90;;;14.10;52.00;;;;;;4899708;29;20453;-94
2023/04/04 11:34:32;;;;;;;5.00;4.30;;;14.30;51.70;;;;;;4899423;29;20458;-91
2023/04/04 11:37:00;;;;;;;4.53;4.07;;;14.40;49.30;;;;;;4899168;29;20416;-94
2023/04/04 11:39:30;;;;;;;4.40;4.10;;;14.40;49.40;;;;;;4899033;29;20454;-94
2023/04/04 11:42:10;;;;;;;5.33;4.93;;;14.40;48.10;;;;;;4905884;29;20425;-94
2023/04/04 11:44:41;;;;;;;4.33;3.77;;;14.60;50.40;;;;;;4911979;29;20423;-94
2023/04/04 11:47:09;;;;;;;3.80;3.60;;;14.70;50.30;;;;;;4912837;29;20485;-92
2023/04/04 11:49:45;;;;;;;4.87;4.50;;;14.90;48.40;;;;;;4915207;29;20441;-94
2023/04/04 11:52:14;;;;;;;4.10;3.77;;;14.90;47.20;;;;;;4911701;29;20439;-94
2023/04/04 11:54:42;;;;;;;5.17;3.73;;;14.90;46.30;;;;;;4909182;29;20518;-92
2023/04/04 11:57:12;;;;;;;4.27;4.00;;;14.80;46.10;;;;;;4906002;29;20475;-93
2023/04/04 11:59:40;;;;;;;4.33;3.77;;;14.80;46.90;;;;;;4907559;29;20442;-93
2023/04/04 12:02:07;;;;;;;4.20;3.93;;;14.10;47.60;;;;;;4903140;29;20423;-94
2023/04/04 12:04:33;;;;;;;3.80;3.60;;;14.20;48.70;;;;;;4899766;29;20764;-94
2023/04/04 12:07:00;;;;;;;3.90;3.60;;;14.40;46.30;;;;;;4898434;29;20436;-94
2023/04/04 12:09:27;;;;;;;4.37;4.13;;;14.40;46.30;;;;;;4899059;29;20183;-94
2023/04/04 12:11:54;;;;;;;3.93;3.73;;;14.50;46.20;;;;;;4897816;29;20450;-94
2023/04/04 12:14:21;;;;;;;4.20;3.90;;;14.70;46.50;;;;;;4899398;29;20463;-94
2023/04/04 12:16:50;;;;;;;5.00;4.60;;;14.50;46.70;;;;;;4897642;29;20438;-92
2023/04/04 12:19:19;;;;;;;4.33;4.03;;;14.70;47.30;;;;;;4898889;29;20916;-94
2023/04/04 12:21:45;;;;;;;3.60;3.30;;;14.90;47.90;;;;;;4899671;29;20429;-87
2023/04/04 12:24:12;;;;;;;3.67;3.37;;;15.00;45.60;;;;;;4898838;29;20464;-94
2023/04/04 12:26:42;;;;;;;4.57;4.27;;;14.80;44.20;;;;;;4898768;29;20443;-95
2023/04/04 12:29:10;;;;;;;4.80;4.50;;;14.80;44.40;;;;;;4896389;29;20450;-94
2023/04/04 12:31:38;;;;;;;5.53;3.60;;;14.70;46.90;;;;;;4898590;29;20744;-94
2023/04/04 12:34:04;;;;;;;4.50;4.30;;;14.70;47.60;;;;;;4898220;29;20592;-89
2023/04/04 12:36:31;;;;;;;4.40;4.00;;;14.90;48.20;;;;;;4898884;29;20546;-94
2023/04/04 12:39:00;;;;;;;3.60;3.30;;;14.70;45.10;;;;;;4897557;29;20459;-94
2023/04/04 12:41:26;;;;;;;3.80;3.47;;;14.70;45.00;;;;;;4899365;29;20440;-94
2023/04/04 12:44:01;;;;;;;4.40;4.10;;;14.80;44.60;;;;;;4901709;29;20416;-94
2023/04/04 12:46:27;;;;;;;4.40;4.10;;;15.00;44.80;;;;;;4902822;29;20844;-94
2023/04/04 12:48:54;;;;;;;4.50;4.20;;;15.00;45.70;;;;;;4899315;29;20443;-94
2023/04/04 12:51:19;;;;;;;4.63;4.23;;;14.70;48.20;;;;;;4899010;29;20419;-95
2023/04/04 12:53:52;;;;;;;4.70;4.40;;;14.50;47.80;;;;;;4897385;29;20496;-87
2023/04/04 12:56:18;;;;;;;4.07;3.77;;;14.50;45.60;;;;;;4897844;29;20188;-94
2023/04/04 12:58:48;;;;;;;4.43;4.20;;;14.40;47.10;;;;;;4899219;29;20417;-95